sensor_id;sensor_type;location;lat;lon;timestamp;pressure;altitude;pressure_sealevel;temperature;humidity
40788;BME280;26497;52.494;7.546;2023-10-13T00:01:54;100467.19;;;21.10;88.40
40788;BME280;26497;52.494;7.546;2023-10-13T00:04:22;100469.41;;;21.19;88.24
40788;BME280;26497;52.494;7.546;2023-10-13T00:06:51;100473.59;;;21.25;87.42
40788;BME280;26497;52.494;7.546;2023-10-13T00:09:18;100470.91;;;21.25;87.53
40788;BME280;26497;52.494;7.546;2023-10-13T00:11:50;100463.16;;;21.38;86.78
40788;BME280;26497;52.494;7.546;2023-10-13T00:14:20;100462.53;;;21.33;86.48
40788;BME280;26497;52.494;7.546;2023-10-13T00:16:48;100463.22;;;21.36;86.98
40788;BME280;26497;52.494;7.546;2023-10-13T00:19:29;100463.22;;;21.36;86.56
40788;BME280;26497;52.494;7.546;2023-10-13T00:22:05;100459.53;;;21.39;86.95
40788;BME280;26497;52.494;7.546;2023-10-13T00:24:39;100463.72;;;21.45;86.28
40788;BME280;26497;52.494;7.546;2023-10-13T00:27:12;100460.47;;;21.38;86.24
40788;BME280;26497;52.494;7.546;2023-10-13T00:29:56;100457.66;;;21.41;86.13
40788;BME280;26497;52.494;7.546;2023-10-13T00:32:48;100447.66;;;21.26;87.03
40788;BME280;26497;52.494;7.546;2023-10-13T00:35:18;100441.31;;;21.09;88.53
40788;BME280;26497;52.494;7.546;2023-10-13T00:37:51;100443.41;;;21.21;87.79
40788;BME280;26497;52.494;7.546;2023-10-13T00:40:20;100440.72;;;21.21;87.38
40788;BME280;26497;52.494;7.546;2023-10-13T00:43:07;100431.59;;;21.26;87.40
40788;BME280;26497;52.494;7.546;2023-10-13T00:45:52;100435.00;;;21.10;88.17
40788;BME280;26497;52.494;7.546;2023-10-13T00:48:23;100426.75;;;21.15;88.03
40788;BME280;26497;52.494;7.546;2023-10-13T00:50:56;100424.72;;;21.01;88.94
40788;BME280;26497;52.494;7.546;2023-10-13T00:53:26;100422.81;;;21.22;88.17
40788;BME280;26497;52.494;7.546;2023-10-13T00:55:54;100421.69;;;21.09;88.95
40788;BME280;26497;52.494;7.546;2023-10-13T00:58:23;100425.88;;;21.14;88.61
40788;BME280;26497;52.494;7.546;2023-10-13T01:00:52;100426.44;;;21.21;88.13
40788;BME280;26497;52.494;7.546;2023-10-13T01:03:43;100419.75;;;21.30;87.66
40788;BME280;26497;52.494;7.546;2023-10-13T01:06:11;100419.28;;;21.21;87.85
40788;BME280;26497;52.494;7.546;2023-10-13T01:08:38;100419.91;;;21.27;87.81
40788;BME280;26497;52.494;7.546;2023-10-13T01:11:04;100413.31;;;21.34;87.17
40788;BME280;26497;52.494;7.546;2023-10-13T01:13:33;100405.25;;;21.34;86.76
40788;BME280;26497;52.494;7.546;2023-10-13T01:16:03;100409.53;;;21.38;86.45
40788;BME280;26497;52.494;7.546;2023-10-13T01:18:33;100405.59;;;21.45;86.54
40788;BME280;26497;52.494;7.546;2023-10-13T01:21:05;100403.13;;;21.41;86.71
40788;BME280;26497;52.494;7.546;2023-10-13T01:23:33;100396.88;;;21.23;87.54
40788;BME280;26497;52.494;7.546;2023-10-13T01:26:04;100398.50;;;21.44;85.94
40788;BME280;26497;52.494;7.546;2023-10-13T01:28:32;100400.22;;;21.45;86.31
40788;BME280;26497;52.494;7.546;2023-10-13T01:31:11;100392.25;;;21.44;86.47
40788;BME280;26497;52.494;7.546;2023-10-13T01:33:51;100386.19;;;21.40;86.37
40788;BME280;26497;52.494;7.546;2023-10-13T01:36:23;100387.97;;;21.40;86.63
40788;BME280;26497;52.494;7.546;2023-10-13T01:38:51;100386.97;;;21.42;86.05
40788;BME280;26497;52.494;7.546;2023-10-13T01:41:19;100387.19;;;21.38;86.50
40788;BME280;26497;52.494;7.546;2023-10-13T01:43:47;100376.91;;;21.28;87.33
40788;BME280;26497;52.494;7.546;2023-10-13T01:46:14;100378.28;;;21.37;86.51
40788;BME280;26497;52.494;7.546;2023-10-13T01:48:45;100383.19;;;21.46;86.17
40788;BME280;26497;52.494;7.546;2023-10-13T01:51:12;100377.50;;;21.53;85.66
40788;BME280;26497;52.494;7.546;2023-10-13T01:53:40;100378.47;;;21.51;85.52
40788;BME280;26497;52.494;7.546;2023-10-13T01:56:08;100366.31;;;21.44;85.81
40788;BME280;26497;52.494;7.546;2023-10-13T01:58:38;100365.34;;;21.45;85.53
40788;BME280;26497;52.494;7.546;2023-10-13T02:01:07;100365.19;;;21.31;86.32
40788;BME280;26497;52.494;7.546;2023-10-13T02:03:36;100353.56;;;21.30;86.48
40788;BME280;26497;52.494;7.546;2023-10-13T02:06:07;100353.81;;;21.26;86.69
40788;BME280;26497;52.494;7.546;2023-10-13T02:08:36;100344.53;;;20.96;88.73
40788;BME280;26497;52.494;7.546;2023-10-13T02:11:07;100349.31;;;21.09;88.56
40788;BME280;26497;52.494;7.546;2023-10-13T02:13:35;100336.84;;;21.08;88.40
40788;BME280;26497;52.494;7.546;2023-10-13T02:16:07;100347.28;;;21.14;88.04
40788;BME280;26497;52.494;7.546;2023-10-13T02:18:37;100337.41;;;21.14;88.05
40788;BME280;26497;52.494;7.546;2023-10-13T02:21:08;100332.28;;;21.27;87.57
40788;BME280;26497;52.494;7.546;2023-10-13T02:23:39;100333.22;;;21.26;87.33
40788;BME280;26497;52.494;7.546;2023-10-13T02:26:11;100332.19;;;21.11;87.93
40788;BME280;26497;52.494;7.546;2023-10-13T02:28:41;100328.81;;;21.08;88.33
40788;BME280;26497;52.494;7.546;2023-10-13T02:31:07;100319.81;;;21.09;88.73
40788;BME280;26497;52.494;7.546;2023-10-13T02:33:34;100321.09;;;21.19;88.25
40788;BME280;26497;52.494;7.546;2023-10-13T02:36:03;100315.63;;;21.20;87.45
40788;BME280;26497;52.494;7.546;2023-10-13T02:38:31;100306.81;;;21.18;88.20
40788;BME280;26497;52.494;7.546;2023-10-13T02:41:11;100297.56;;;21.24;87.68
40788;BME280;26497;52.494;7.546;2023-10-13T02:43:44;100302.25;;;21.38;86.48
40788;BME280;26497;52.494;7.546;2023-10-13T02:46:10;100305.59;;;21.24;87.71
40788;BME280;26497;52.494;7.546;2023-10-13T02:48:41;100299.81;;;21.16;88.09
40788;BME280;26497;52.494;7.546;2023-10-13T02:51:12;100296.31;;;21.14;88.02
40788;BME280;26497;52.494;7.546;2023-10-13T02:53:43;100291.97;;;21.11;87.47
40788;BME280;26497;52.494;7.546;2023-10-13T02:56:14;100296.31;;;21.14;88.04
40788;BME280;26497;52.494;7.546;2023-10-13T02:58:48;100294.66;;;21.11;87.84
40788;BME280;26497;52.494;7.546;2023-10-13T03:01:19;100294.34;;;21.17;87.26
40788;BME280;26497;52.494;7.546;2023-10-13T03:03:50;100291.50;;;21.20;87.09
40788;BME280;26497;52.494;7.546;2023-10-13T03:06:21;100291.19;;;21.09;87.82
40788;BME280;26497;52.494;7.546;2023-10-13T03:08:51;100295.28;;;21.16;87.44
40788;BME280;26497;52.494;7.546;2023-10-13T03:11:18;100284.41;;;21.19;87.33
40788;BME280;26497;52.494;7.546;2023-10-13T03:13:49;100282.69;;;21.18;87.92
40788;BME280;26497;52.494;7.546;2023-10-13T03:16:18;100274.78;;;21.15;87.71
40788;BME280;26497;52.494;7.546;2023-10-13T03:18:47;100274.63;;;21.18;87.82
40788;BME280;26497;52.494;7.546;2023-10-13T03:21:23;100271.31;;;21.13;87.94
40788;BME280;26497;52.494;7.546;2023-10-13T03:23:58;100270.38;;;21.14;88.21
40788;BME280;26497;52.494;7.546;2023-10-13T03:26:32;100275.25;;;21.24;87.62
40788;BME280;26497;52.494;7.546;2023-10-13T03:29:03;100264.84;;;21.35;87.44
40788;BME280;26497;52.494;7.546;2023-10-13T03:31:30;100268.38;;;21.35;86.98
40788;BME280;26497;52.494;7.546;2023-10-13T03:34:04;100267.75;;;21.30;87.15
40788;BME280;26497;52.494;7.546;2023-10-13T03:36:31;100263.13;;;21.34;87.19
40788;BME280;26497;52.494;7.546;2023-10-13T03:39:23;100257.44;;;21.23;87.57
40788;BME280;26497;52.494;7.546;2023-10-13T03:41:57;100257.03;;;21.30;87.48
40788;BME280;26497;52.494;7.546;2023-10-13T03:44:25;100256.09;;;21.31;87.36
40788;BME280;26497;52.494;7.546;2023-10-13T03:46:56;100253.03;;;21.39;86.77
40788;BME280;26497;52.494;7.546;2023-10-13T03:49:34;100255.97;;;21.17;87.78
40788;BME280;26497;52.494;7.546;2023-10-13T03:52:04;100250.97;;;21.27;87.39
40788;BME280;26497;52.494;7.546;2023-10-13T03:54:31;100242.47;;;21.18;87.49
40788;BME280;26497;52.494;7.546;2023-10-13T03:57:02;100237.09;;;21.01;88.70
40788;BME280;26497;52.494;7.546;2023-10-13T03:59:37;100236.31;;;20.99;89.34
40788;BME280;26497;52.494;7.546;2023-10-13T04:02:05;100231.34;;;21.09;88.88
40788;BME280;26497;52.494;7.546;2023-10-13T04:04:46;100225.41;;;21.19;88.43
40788;BME280;26497;52.494;7.546;2023-10-13T04:07:16;100220.63;;;21.09;88.70
40788;BME280;26497;52.494;7.546;2023-10-13T04:09:57;100212.75;;;21.05;88.87
40788;BME280;26497;52.494;7.546;2023-10-13T04:12:51;100207.59;;;21.01;88.96
40788;BME280;26497;52.494;7.546;2023-10-13T04:15:35;100200.59;;;21.16;88.39
40788;BME280;26497;52.494;7.546;2023-10-13T04:18:27;100190.72;;;21.16;88.01
40788;BME280;26497;52.494;7.546;2023-10-13T04:21:12;100179.47;;;21.10;88.25
40788;BME280;26497;52.494;7.546;2023-10-13T04:24:06;100186.16;;;21.01;88.99
40788;BME280;26497;52.494;7.546;2023-10-13T04:26:50;100170.88;;;20.85;89.63
40788;BME280;26497;52.494;7.546;2023-10-13T04:29:33;100171.28;;;20.95;90.12
40788;BME280;26497;52.494;7.546;2023-10-13T04:32:17;100169.53;;;20.94;89.59
40788;BME280;26497;52.494;7.546;2023-10-13T04:34:55;100168.50;;;20.97;89.57
40788;BME280;26497;52.494;7.546;2023-10-13T04:37:25;100162.75;;;21.04;89.03
40788;BME280;26497;52.494;7.546;2023-10-13T04:39:55;100155.56;;;21.05;88.75
40788;BME280;26497;52.494;7.546;2023-10-13T04:42:25;100147.47;;;20.89;89.74
40788;BME280;26497;52.494;7.546;2023-10-13T04:45:10;100148.09;;;20.94;89.43
40788;BME280;26497;52.494;7.546;2023-10-13T04:48:04;100140.91;;;20.95;89.76
40788;BME280;26497;52.494;7.546;2023-10-13T04:50:45;100140.59;;;20.83;90.47
40788;BME280;26497;52.494;7.546;2023-10-13T04:53:14;100134.28;;;20.84;90.93
40788;BME280;26497;52.494;7.546;2023-10-13T04:55:55;100139.03;;;20.79;91.14
40788;BME280;26497;52.494;7.546;2023-10-13T04:58:55;100127.69;;;20.91;90.56
40788;BME280;26497;52.494;7.546;2023-10-13T05:01:40;100120.59;;;20.90;90.73
40788;BME280;26497;52.494;7.546;2023-10-13T05:04:21;100107.31;;;20.70;91.85
40788;BME280;26497;52.494;7.546;2023-10-13T05:06:56;100109.41;;;20.82;91.39
40788;BME280;26497;52.494;7.546;2023-10-13T05:09:40;100105.34;;;20.56;92.79
40788;BME280;26497;52.494;7.546;2023-10-13T05:12:25;100114.09;;;20.59;92.98
40788;BME280;26497;52.494;7.546;2023-10-13T05:15:09;100094.50;;;20.76;92.10
40788;BME280;26497;52.494;7.546;2023-10-13T05:17:55;100094.41;;;20.60;93.04
40788;BME280;26497;52.494;7.546;2023-10-13T05:20:40;100073.75;;;20.62;93.03
40788;BME280;26497;52.494;7.546;2023-10-13T05:23:24;100068.41;;;20.80;92.12
40788;BME280;26497;52.494;7.546;2023-10-13T05:26:09;100058.94;;;20.55;92.83
40788;BME280;26497;52.494;7.546;2023-10-13T05:28:54;100050.38;;;20.66;93.02
40788;BME280;26497;52.494;7.546;2023-10-13T05:31:38;100042.66;;;20.60;93.73
40788;BME280;26497;52.494;7.546;2023-10-13T05:34:24;100036.03;;;20.50;94.59
40788;BME280;26497;52.494;7.546;2023-10-13T05:37:08;100035.88;;;20.53;94.28
40788;BME280;26497;52.494;7.546;2023-10-13T05:39:59;100033.81;;;20.75;93.11
40788;BME280;26497;52.494;7.546;2023-10-13T05:43:04;100017.81;;;20.56;94.04
40788;BME280;26497;52.494;7.546;2023-10-13T05:45:49;100015.88;;;20.60;93.80
40788;BME280;26497;52.494;7.546;2023-10-13T05:48:33;100004.63;;;20.53;94.74
40788;BME280;26497;52.494;7.546;2023-10-13T05:51:36;100009.47;;;20.62;94.04
40788;BME280;26497;52.494;7.546;2023-10-13T05:54:14;100018.41;;;20.45;94.61
40788;BME280;26497;52.494;7.546;2023-10-13T05:56:58;100003.22;;;20.28;95.81
40788;BME280;26497;52.494;7.546;2023-10-13T05:59:43;99998.72;;;20.29;95.89
40788;BME280;26497;52.494;7.546;2023-10-13T06:02:26;99996.28;;;20.24;95.85
40788;BME280;26497;52.494;7.546;2023-10-13T06:05:12;100003.22;;;20.46;95.20
40788;BME280;26497;52.494;7.546;2023-10-13T06:07:59;99995.66;;;20.37;95.17
40788;BME280;26497;52.494;7.546;2023-10-13T06:10:44;99988.09;;;20.45;94.48
40788;BME280;26497;52.494;7.546;2023-10-13T06:13:29;99993.13;;;20.51;94.24
40788;BME280;26497;52.494;7.546;2023-10-13T06:16:16;99987.53;;;20.38;94.99
40788;BME280;26497;52.494;7.546;2023-10-13T06:19:01;99976.44;;;20.46;94.78
40788;BME280;26497;52.494;7.546;2023-10-13T06:21:47;99967.63;;;20.44;94.40
40788;BME280;26497;52.494;7.546;2023-10-13T06:24:32;99959.81;;;20.22;96.04
40788;BME280;26497;52.494;7.546;2023-10-13T06:27:17;99954.41;;;20.23;95.60
40788;BME280;26497;52.494;7.546;2023-10-13T06:30:16;99957.53;;;20.31;94.94
40788;BME280;26497;52.494;7.546;2023-10-13T06:32:43;99948.00;;;19.91;97.21
40788;BME280;26497;52.494;7.546;2023-10-13T06:35:12;99949.75;;;19.92;98.29
40788;BME280;26497;52.494;7.546;2023-10-13T06:37:49;99953.53;;;20.23;95.88
40788;BME280;26497;52.494;7.546;2023-10-13T06:40:17;99959.59;;;20.26;96.05
40788;BME280;26497;52.494;7.546;2023-10-13T06:42:59;99973.03;;;20.25;96.29
40788;BME280;26497;52.494;7.546;2023-10-13T06:45:38;99965.75;;;20.11;96.93
40788;BME280;26497;52.494;7.546;2023-10-13T06:48:06;99956.44;;;20.00;98.38
40788;BME280;26497;52.494;7.546;2023-10-13T06:50:37;99953.63;;;20.21;97.87
40788;BME280;26497;52.494;7.546;2023-10-13T06:53:07;99969.56;;;20.40;96.67
40788;BME280;26497;52.494;7.546;2023-10-13T06:55:39;99967.03;;;20.55;96.34
40788;BME280;26497;52.494;7.546;2023-10-13T06:58:06;99956.47;;;20.52;96.55
40788;BME280;26497;52.494;7.546;2023-10-13T07:00:39;99966.94;;;20.56;97.38
40788;BME280;26497;52.494;7.546;2023-10-13T07:03:06;99963.13;;;20.78;96.67
40788;BME280;26497;52.494;7.546;2023-10-13T07:05:36;99958.88;;;20.74;96.89
40788;BME280;26497;52.494;7.546;2023-10-13T07:08:05;99974.69;;;20.96;95.98
40788;BME280;26497;52.494;7.546;2023-10-13T07:10:33;99973.75;;;21.13;94.79
40788;BME280;26497;52.494;7.546;2023-10-13T07:13:11;99968.72;;;21.23;94.96
40788;BME280;26497;52.494;7.546;2023-10-13T07:15:40;99962.16;;;21.29;94.64
40788;BME280;26497;52.494;7.546;2023-10-13T07:18:12;99976.59;;;21.10;96.29
40788;BME280;26497;52.494;7.546;2023-10-13T07:20:41;99976.59;;;21.26;95.56
40788;BME280;26497;52.494;7.546;2023-10-13T07:23:11;99976.59;;;21.42;94.27
40788;BME280;26497;52.494;7.546;2023-10-13T07:25:51;99969.88;;;21.67;93.56
40788;BME280;26497;52.494;7.546;2023-10-13T07:28:20;99952.00;;;21.82;92.53
40788;BME280;26497;52.494;7.546;2023-10-13T07:30:48;99955.69;;;21.65;93.26
40788;BME280;26497;52.494;7.546;2023-10-13T07:33:36;99962.38;;;21.88;92.65
40788;BME280;26497;52.494;7.546;2023-10-13T07:36:05;99962.16;;;22.22;91.11
40788;BME280;26497;52.494;7.546;2023-10-13T07:38:42;99955.75;;;22.24;90.46
40788;BME280;26497;52.494;7.546;2023-10-13T07:41:09;99952.72;;;22.00;91.34
40788;BME280;26497;52.494;7.546;2023-10-13T07:43:43;99966.28;;;22.13;90.91
40788;BME280;26497;52.494;7.546;2023-10-13T07:46:11;99965.19;;;22.32;90.38
40788;BME280;26497;52.494;7.546;2023-10-13T07:48:39;99969.66;;;22.31;89.87
40788;BME280;26497;52.494;7.546;2023-10-13T07:51:11;99968.94;;;22.44;88.85
40788;BME280;26497;52.494;7.546;2023-10-13T07:53:41;99964.47;;;22.28;89.46
40788;BME280;26497;52.494;7.546;2023-10-13T07:56:09;99952.72;;;22.31;90.53
40788;BME280;26497;52.494;7.546;2023-10-13T07:58:38;99950.44;;;22.53;89.30
40788;BME280;26497;52.494;7.546;2023-10-13T08:01:14;99948.75;;;22.52;89.12
40788;BME280;26497;52.494;7.546;2023-10-13T08:03:44;99937.31;;;22.92;88.72
40788;BME280;26497;52.494;7.546;2023-10-13T08:06:13;99930.19;;;23.06;87.94
40788;BME280;26497;52.494;7.546;2023-10-13T08:08:48;99930.34;;;23.17;87.42
40788;BME280;26497;52.494;7.546;2023-10-13T08:11:19;99919.78;;;23.14;86.12
40788;BME280;26497;52.494;7.546;2023-10-13T08:13:58;99915.81;;;23.34;85.56
40788;BME280;26497;52.494;7.546;2023-10-13T08:16:52;99909.47;;;23.21;84.52
40788;BME280;26497;52.494;7.546;2023-10-13T08:19:30;99899.75;;;22.76;87.18
40788;BME280;26497;52.494;7.546;2023-10-13T08:22:06;99886.31;;;22.91;86.61
40788;BME280;26497;52.494;7.546;2023-10-13T08:24:51;99891.88;;;22.88;86.51
40788;BME280;26497;52.494;7.546;2023-10-13T08:27:39;99868.19;;;22.80;87.15
40788;BME280;26497;52.494;7.546;2023-10-13T08:30:16;99860.16;;;22.65;88.11
40788;BME280;26497;52.494;7.546;2023-10-13T08:32:56;99863.50;;;22.69;88.42
40788;BME280;26497;52.494;7.546;2023-10-13T08:35:25;99861.78;;;22.53;88.88
40788;BME280;26497;52.494;7.546;2023-10-13T08:38:03;99855.75;;;22.50;89.08
40788;BME280;26497;52.494;7.546;2023-10-13T08:40:43;99858.34;;;22.51;89.71
40788;BME280;26497;52.494;7.546;2023-10-13T08:43:42;99857.88;;;22.45;90.04
40788;BME280;26497;52.494;7.546;2023-10-13T08:46:16;99847.31;;;22.56;89.12
40788;BME280;26497;52.494;7.546;2023-10-13T08:48:57;99856.00;;;22.74;88.43
40788;BME280;26497;52.494;7.546;2023-10-13T08:51:42;99852.41;;;23.03;87.45
40788;BME280;26497;52.494;7.546;2023-10-13T08:54:16;99849.63;;;22.90;87.43
40788;BME280;26497;52.494;7.546;2023-10-13T08:56:47;99844.19;;;22.91;87.40
40788;BME280;26497;52.494;7.546;2023-10-13T08:59:22;99840.22;;;22.97;87.08
40788;BME280;26497;52.494;7.546;2023-10-13T09:01:48;99830.06;;;22.88;87.04
40788;BME280;26497;52.494;7.546;2023-10-13T09:04:26;99824.06;;;22.97;87.47
40788;BME280;26497;52.494;7.546;2023-10-13T09:07:01;99817.38;;;22.62;88.07
40788;BME280;26497;52.494;7.546;2023-10-13T09:09:48;99825.53;;;23.03;88.11
40788;BME280;26497;52.494;7.546;2023-10-13T09:12:37;99812.34;;;23.53;85.12
40788;BME280;26497;52.494;7.546;2023-10-13T09:15:30;99817.22;;;23.86;83.48
40788;BME280;26497;52.494;7.546;2023-10-13T09:18:11;99807.44;;;23.73;81.98
40788;BME280;26497;52.494;7.546;2023-10-13T09:20:42;99806.47;;;23.99;81.67
40788;BME280;26497;52.494;7.546;2023-10-13T09:23:13;99797.44;;;24.13;79.85
40788;BME280;26497;52.494;7.546;2023-10-13T09:25:51;99807.53;;;24.36;79.00
40788;BME280;26497;52.494;7.546;2023-10-13T09:28:27;99796.53;;;24.39;77.69
40788;BME280;26497;52.494;7.546;2023-10-13T09:30:57;99789.84;;;24.32;77.99
40788;BME280;26497;52.494;7.546;2023-10-13T09:33:24;99790.31;;;24.76;76.46
40788;BME280;26497;52.494;7.546;2023-10-13T09:36:00;99790.59;;;24.47;76.55
40788;BME280;26497;52.494;7.546;2023-10-13T09:38:33;99800.44;;;24.72;75.54
40788;BME280;26497;52.494;7.546;2023-10-13T09:40:59;99792.31;;;24.85;75.12
40788;BME280;26497;52.494;7.546;2023-10-13T09:43:43;99786.81;;;25.11;74.20
40788;BME280;26497;52.494;7.546;2023-10-13T09:46:11;99787.84;;;25.21;72.64
40788;BME280;26497;52.494;7.546;2023-10-13T09:48:46;99790.72;;;25.67;71.87
40788;BME280;26497;52.494;7.546;2023-10-13T09:51:15;99771.72;;;25.91;69.14
40788;BME280;26497;52.494;7.546;2023-10-13T09:53:51;99758.34;;;26.12;68.44
40788;BME280;26497;52.494;7.546;2023-10-13T09:56:26;99772.19;;;25.73;69.32
40788;BME280;26497;52.494;7.546;2023-10-13T09:58:59;99768.63;;;25.73;69.25
40788;BME280;26497;52.494;7.546;2023-10-13T10:01:40;99763.47;;;25.58;69.64
40788;BME280;26497;52.494;7.546;2023-10-13T10:04:17;99753.81;;;25.43;70.04
40788;BME280;26497;52.494;7.546;2023-10-13T10:06:54;99750.69;;;25.49;70.20
40788;BME280;26497;52.494;7.546;2023-10-13T10:09:26;99757.47;;;25.30;69.97
40788;BME280;26497;52.494;7.546;2023-10-13T10:12:23;99757.31;;;25.56;68.99
40788;BME280;26497;52.494;7.546;2023-10-13T10:15:09;99747.28;;;26.04;67.45
40788;BME280;26497;52.494;7.546;2023-10-13T10:17:41;99755.13;;;25.84;67.87
40788;BME280;26497;52.494;7.546;2023-10-13T10:20:07;99744.69;;;25.68;67.94
40788;BME280;26497;52.494;7.546;2023-10-13T10:22:56;99740.38;;;25.54;68.36
40788;BME280;26497;52.494;7.546;2023-10-13T10:25:32;99749.97;;;25.58;67.81
40788;BME280;26497;52.494;7.546;2023-10-13T10:28:03;99753.16;;;25.98;66.77
40788;BME280;26497;52.494;7.546;2023-10-13T10:30:34;99756.72;;;25.75;66.84
40788;BME280;26497;52.494;7.546;2023-10-13T10:33:05;99736.66;;;25.44;67.43
40788;BME280;26497;52.494;7.546;2023-10-13T10:35:38;99723.41;;;25.41;67.77
40788;BME280;26497;52.494;7.546;2023-10-13T10:38:12;99729.38;;;25.33;68.41
40788;BME280;26497;52.494;7.546;2023-10-13T10:40:53;99727.47;;;25.11;69.81
40788;BME280;26497;52.494;7.546;2023-10-13T10:43:26;99730.34;;;24.96;70.26
40788;BME280;26497;52.494;7.546;2023-10-13T10:45:54;99729.47;;;24.84;70.43
40788;BME280;26497;52.494;7.546;2023-10-13T10:48:26;99722.50;;;24.93;70.63
40788;BME280;26497;52.494;7.546;2023-10-13T10:51:00;99727.38;;;24.88;69.89
40788;BME280;26497;52.494;7.546;2023-10-13T10:53:34;99718.13;;;25.03;69.56
40788;BME280;26497;52.494;7.546;2023-10-13T10:56:10;99703.25;;;24.86;69.86
40788;BME280;26497;52.494;7.546;2023-10-13T10:58:47;99698.28;;;25.05;68.38
40788;BME280;26497;52.494;7.546;2023-10-13T11:01:13;99695.31;;;24.72;69.81
40788;BME280;26497;52.494;7.546;2023-10-13T11:03:54;99688.75;;;24.63;69.43
40788;BME280;26497;52.494;7.546;2023-10-13T11:06:23;99679.53;;;24.54;70.05
40788;BME280;26497;52.494;7.546;2023-10-13T11:09:03;99689.03;;;24.71;68.98
40788;BME280;26497;52.494;7.546;2023-10-13T11:11:45;99683.06;;;24.55;69.15
40788;BME280;26497;52.494;7.546;2023-10-13T11:14:21;99689.34;;;24.80;68.90
40788;BME280;26497;52.494;7.546;2023-10-13T11:16:50;99683.69;;;24.96;67.65
40788;BME280;26497;52.494;7.546;2023-10-13T11:19:19;99695.38;;;25.19;66.39
40788;BME280;26497;52.494;7.546;2023-10-13T11:21:54;99679.78;;;25.23;65.79
40788;BME280;26497;52.494;7.546;2023-10-13T11:24:22;99676.94;;;25.49;64.56
40788;BME280;26497;52.494;7.546;2023-10-13T11:26:50;99682.00;;;25.76;62.69
40788;BME280;26497;52.494;7.546;2023-10-13T11:29:19;99669.72;;;25.60;63.53
40788;BME280;26497;52.494;7.546;2023-10-13T11:31:47;99663.19;;;25.52;63.35
40788;BME280;26497;52.494;7.546;2023-10-13T11:34:20;99644.91;;;25.44;64.99
40788;BME280;26497;52.494;7.546;2023-10-13T11:36:47;99636.53;;;25.24;65.18
40788;BME280;26497;52.494;7.546;2023-10-13T11:39:14;99629.09;;;25.51;64.58
40788;BME280;26497;52.494;7.546;2023-10-13T11:41:50;99617.69;;;25.58;62.60
40788;BME280;26497;52.494;7.546;2023-10-13T11:44:21;99602.09;;;25.51;62.74
40788;BME280;26497;52.494;7.546;2023-10-13T11:46:51;99610.69;;;25.67;61.67
40788;BME280;26497;52.494;7.546;2023-10-13T11:49:34;99601.91;;;25.98;60.87
40788;BME280;26497;52.494;7.546;2023-10-13T11:52:03;99592.47;;;26.47;58.46
40788;BME280;26497;52.494;7.546;2023-10-13T11:54:42;99592.75;;;26.65;58.21
40788;BME280;26497;52.494;7.546;2023-10-13T11:57:11;99589.09;;;26.55;57.97
40788;BME280;26497;52.494;7.546;2023-10-13T11:59:38;99586.66;;;26.52;58.21
40788;BME280;26497;52.494;7.546;2023-10-13T12:02:20;99582.13;;;26.53;57.37
40788;BME280;26497;52.494;7.546;2023-10-13T12:05:06;99568.66;;;27.26;56.65
40788;BME280;26497;52.494;7.546;2023-10-13T12:07:40;99569.38;;;28.10;53.36
40788;BME280;26497;52.494;7.546;2023-10-13T12:10:11;99561.59;;;27.86;53.28
40788;BME280;26497;52.494;7.546;2023-10-13T12:13:02;99561.38;;;27.99;53.06
40788;BME280;26497;52.494;7.546;2023-10-13T12:15:33;99553.78;;;28.02;52.56
40788;BME280;26497;52.494;7.546;2023-10-13T12:18:15;99554.50;;;27.94;52.34
40788;BME280;26497;52.494;7.546;2023-10-13T12:20:42;99559.09;;;27.22;54.86
40788;BME280;26497;52.494;7.546;2023-10-13T12:23:12;99560.47;;;27.06;54.76
40788;BME280;26497;52.494;7.546;2023-10-13T12:25:43;99540.19;;;27.01;55.17
40788;BME280;26497;52.494;7.546;2023-10-13T12:28:27;99542.97;;;27.11;54.99
40788;BME280;26497;52.494;7.546;2023-10-13T12:31:04;99532.09;;;27.32;52.98
40788;BME280;26497;52.494;7.546;2023-10-13T12:33:34;99529.59;;;27.19;52.88
40788;BME280;26497;52.494;7.546;2023-10-13T12:36:06;99521.44;;;27.40;52.47
40788;BME280;26497;52.494;7.546;2023-10-13T12:38:35;99518.91;;;27.07;52.07
40788;BME280;26497;52.494;7.546;2023-10-13T12:41:22;99502.09;;;26.83;51.74
40788;BME280;26497;52.494;7.546;2023-10-13T12:44:08;99502.47;;;26.99;52.51
40788;BME280;26497;52.494;7.546;2023-10-13T12:46:53;99492.59;;;26.88;52.19
40788;BME280;26497;52.494;7.546;2023-10-13T12:49:37;99517.47;;;26.82;51.52
40788;BME280;26497;52.494;7.546;2023-10-13T12:52:23;99493.50;;;26.99;50.65
40788;BME280;26497;52.494;7.546;2023-10-13T12:54:53;99493.47;;;26.89;51.12
40788;BME280;26497;52.494;7.546;2023-10-13T12:57:33;99500.50;;;26.59;53.03
40788;BME280;26497;52.494;7.546;2023-10-13T13:00:02;99496.78;;;26.50;52.43
40788;BME280;26497;52.494;7.546;2023-10-13T13:02:42;99512.69;;;26.74;51.90
40788;BME280;26497;52.494;7.546;2023-10-13T13:05:09;99488.09;;;26.99;50.66
40788;BME280;26497;52.494;7.546;2023-10-13T13:07:39;99497.69;;;27.13;50.13
40788;BME280;26497;52.494;7.546;2023-10-13T13:10:13;99487.81;;;27.43;49.89
40788;BME280;26497;52.494;7.546;2023-10-13T13:12:40;99488.41;;;27.46;49.13
40788;BME280;26497;52.494;7.546;2023-10-13T13:15:10;99493.13;;;27.54;49.64
40788;BME280;26497;52.494;7.546;2023-10-13T13:17:38;99494.56;;;27.58;49.13
40788;BME280;26497;52.494;7.546;2023-10-13T13:20:07;99489.88;;;27.60;49.28
40788;BME280;26497;52.494;7.546;2023-10-13T13:22:51;99501.69;;;27.49;49.41
40788;BME280;26497;52.494;7.546;2023-10-13T13:25:19;99511.31;;;27.42;50.13
40788;BME280;26497;52.494;7.546;2023-10-13T13:27:51;99509.72;;;27.40;49.83
40788;BME280;26497;52.494;7.546;2023-10-13T13:30:19;99508.72;;;27.62;49.40
40788;BME280;26497;52.494;7.546;2023-10-13T13:32:47;99500.88;;;27.28;50.16
40788;BME280;26497;52.494;7.546;2023-10-13T13:35:15;99502.53;;;27.19;49.49
40788;BME280;26497;52.494;7.546;2023-10-13T13:37:44;99471.22;;;27.16;50.00